Pagina principale
METAR-TAF:

METAR-TAF

Aeroporti :

Cerklje ob Krki, Slovenia

latitudine: 45-53-59N, longitudine: 15-30-55E, altezza: 157 m

Osservazione

Il bollettino è stato emesso 22 minuti fa, alle 23:30 UTC
Vento 3 kt da ovest/sud-ovest
Temperature 12°C
Umidità 100%
Pressione 1008 hPa
Visibilità 10 km o più
pioggia debole

METAR: LJCE 152330Z AUTO 25003KT 9999 -RA NSC 12/12 Q1008

Ora: 01:52 (23:52 UTC)

Previsione

Il bollettino è stato emesso 52 minuti fa, alle 23:00 UTC
Previsione valida dal 16 alle 00 UTC al 16 alle 09 UTC
Vento 4 kt da ovest/sud-ovest
Visibilità 10 km o più
Nubi sparse ad un'altezza di 4500 ft

TAF: LJCE 152300Z 1600/1609 25004KT 9999 SCT045

Osservazioni e previsioni meteorologiche di più di 4000 aeroporti (messaggi METAR e TAF).

Le stazioni disponibili sono rappresentate dai dischi gialli e rossi sulla carta.

Puntare il mouse per vedere il nome della stazione.

Clicca sopra per visualizzare le osservazioni e previsioni meteorologiche.

Per cambiare la mappa : fare clic sui pulsanti verdi con una croce nera per ingrandire, il pulsante verde con un trattino per diminuire, o sulla freccia verde per le mappe adiacenti.


METAR-TAF: